sensor_id;sensor_type;location;lat;lon;timestamp;P1;durP1;ratioP1;P2;durP2;ratioP2
61096;SDS011;46977;50.936;6.908;2022-10-16T00:01:11;2.63;;;1.42;;
61096;SDS011;46977;50.936;6.908;2022-10-16T00:04:14;3.03;;;1.73;;
61096;SDS011;46977;50.936;6.908;2022-10-16T00:07:18;2.30;;;1.30;;
61096;SDS011;46977;50.936;6.908;2022-10-16T00:10:21;2.35;;;1.67;;
61096;SDS011;46977;50.936;6.908;2022-10-16T00:13:23;2.85;;;1.30;;
61096;SDS011;46977;50.936;6.908;2022-10-16T00:16:26;2.83;;;1.35;;
61096;SDS011;46977;50.936;6.908;2022-10-16T00:19:29;1.80;;;1.48;;
61096;SDS011;46977;50.936;6.908;2022-10-16T00:22:33;2.25;;;1.90;;
61096;SDS011;46977;50.936;6.908;2022-10-16T00:25:36;2.28;;;1.38;;
61096;SDS011;46977;50.936;6.908;2022-10-16T00:28:38;4.13;;;1.38;;
61096;SDS011;46977;50.936;6.908;2022-10-16T00:31:41;5.07;;;1.70;;
61096;SDS011;46977;50.936;6.908;2022-10-16T00:34:44;1.40;;;1.30;;
61096;SDS011;46977;50.936;6.908;2022-10-16T00:37:48;1.25;;;1.15;;
61096;SDS011;46977;50.936;6.908;2022-10-16T00:40:51;2.58;;;1.20;;
61096;SDS011;46977;50.936;6.908;2022-10-16T00:43:54;1.92;;;1.33;;
61096;SDS011;46977;50.936;6.908;2022-10-16T00:46:57;3.47;;;1.15;;
61096;SDS011;46977;50.936;6.908;2022-10-16T00:50:02;2.47;;;1.58;;
61096;SDS011;46977;50.936;6.908;2022-10-16T00:53:10;2.15;;;1.90;;
61096;SDS011;46977;50.936;6.908;2022-10-16T00:56:13;1.70;;;1.20;;
61096;SDS011;46977;50.936;6.908;2022-10-16T00:59:16;2.28;;;0.90;;
61096;SDS011;46977;50.936;6.908;2022-10-16T01:02:21;1.40;;;1.20;;
61096;SDS011;46977;50.936;6.908;2022-10-16T01:05:24;0.82;;;0.77;;
61096;SDS011;46977;50.936;6.908;2022-10-16T01:08:32;2.95;;;1.00;;
61096;SDS011;46977;50.936;6.908;2022-10-16T01:11:38;1.63;;;0.93;;
61096;SDS011;46977;50.936;6.908;2022-10-16T01:14:47;2.40;;;0.80;;
61096;SDS011;46977;50.936;6.908;2022-10-16T01:17:53;1.83;;;1.08;;
61096;SDS011;46977;50.936;6.908;2022-10-16T01:21:01;2.17;;;0.90;;
61096;SDS011;46977;50.936;6.908;2022-10-16T01:24:08;1.27;;;0.82;;
61096;SDS011;46977;50.936;6.908;2022-10-16T01:27:17;1.85;;;1.00;;
61096;SDS011;46977;50.936;6.908;2022-10-16T01:30:23;1.02;;;0.70;;
61096;SDS011;46977;50.936;6.908;2022-10-16T01:33:28;1.45;;;0.70;;
61096;SDS011;46977;50.936;6.908;2022-10-16T01:36:35;3.60;;;1.00;;
61096;SDS011;46977;50.936;6.908;2022-10-16T01:39:40;1.38;;;0.77;;
61096;SDS011;46977;50.936;6.908;2022-10-16T01:42:46;0.90;;;0.90;;
61096;SDS011;46977;50.936;6.908;2022-10-16T01:45:50;0.93;;;0.77;;
61096;SDS011;46977;50.936;6.908;2022-10-16T01:48:54;1.50;;;0.77;;
61096;SDS011;46977;50.936;6.908;2022-10-16T01:51:58;1.00;;;0.70;;
61096;SDS011;46977;50.936;6.908;2022-10-16T01:55:02;2.25;;;0.70;;
61096;SDS011;46977;50.936;6.908;2022-10-16T01:58:07;0.60;;;0.60;;
61096;SDS011;46977;50.936;6.908;2022-10-16T02:01:11;2.17;;;0.80;;
61096;SDS011;46977;50.936;6.908;2022-10-16T02:04:15;1.02;;;0.82;;
61096;SDS011;46977;50.936;6.908;2022-10-16T02:07:20;1.80;;;0.73;;
61096;SDS011;46977;50.936;6.908;2022-10-16T02:10:22;1.10;;;0.80;;
61096;SDS011;46977;50.936;6.908;2022-10-16T02:13:29;1.65;;;0.77;;
61096;SDS011;46977;50.936;6.908;2022-10-16T02:16:35;1.15;;;0.70;;
61096;SDS011;46977;50.936;6.908;2022-10-16T02:19:39;2.25;;;0.90;;
61096;SDS011;46977;50.936;6.908;2022-10-16T02:22:42;1.42;;;1.00;;
61096;SDS011;46977;50.936;6.908;2022-10-16T02:25:47;1.38;;;0.82;;
61096;SDS011;46977;50.936;6.908;2022-10-16T02:28:54;2.25;;;0.90;;
61096;SDS011;46977;50.936;6.908;2022-10-16T02:31:58;1.73;;;1.13;;
61096;SDS011;46977;50.936;6.908;2022-10-16T02:35:03;1.58;;;1.00;;
61096;SDS011;46977;50.936;6.908;2022-10-16T02:38:06;0.82;;;0.82;;
61096;SDS011;46977;50.936;6.908;2022-10-16T02:41:09;1.98;;;0.90;;
61096;SDS011;46977;50.936;6.908;2022-10-16T02:44:13;1.17;;;0.80;;
61096;SDS011;46977;50.936;6.908;2022-10-16T02:47:16;1.73;;;0.95;;
61096;SDS011;46977;50.936;6.908;2022-10-16T02:50:18;1.90;;;1.05;;
61096;SDS011;46977;50.936;6.908;2022-10-16T02:53:20;3.00;;;1.20;;
61096;SDS011;46977;50.936;6.908;2022-10-16T02:56:26;2.80;;;0.95;;
61096;SDS011;46977;50.936;6.908;2022-10-16T02:59:30;1.67;;;0.90;;
61096;SDS011;46977;50.936;6.908;2022-10-16T03:02:33;0.88;;;0.85;;
61096;SDS011;46977;50.936;6.908;2022-10-16T03:05:35;1.42;;;0.80;;
61096;SDS011;46977;50.936;6.908;2022-10-16T03:08:38;1.48;;;0.80;;
61096;SDS011;46977;50.936;6.908;2022-10-16T03:11:40;2.22;;;0.80;;
61096;SDS011;46977;50.936;6.908;2022-10-16T03:14:44;1.02;;;0.80;;
61096;SDS011;46977;50.936;6.908;2022-10-16T03:17:47;1.92;;;0.70;;
61096;SDS011;46977;50.936;6.908;2022-10-16T03:20:49;0.90;;;0.70;;
61096;SDS011;46977;50.936;6.908;2022-10-16T03:23:52;1.45;;;0.98;;
61096;SDS011;46977;50.936;6.908;2022-10-16T03:26:54;1.00;;;0.90;;
61096;SDS011;46977;50.936;6.908;2022-10-16T03:29:58;0.80;;;0.60;;
61096;SDS011;46977;50.936;6.908;2022-10-16T03:33:00;0.90;;;0.70;;
61096;SDS011;46977;50.936;6.908;2022-10-16T03:36:03;1.35;;;1.17;;
61096;SDS011;46977;50.936;6.908;2022-10-16T03:39:05;4.30;;;0.95;;
61096;SDS011;46977;50.936;6.908;2022-10-16T03:42:08;2.05;;;1.48;;
61096;SDS011;46977;50.936;6.908;2022-10-16T03:45:11;1.85;;;0.80;;
61096;SDS011;46977;50.936;6.908;2022-10-16T03:48:14;1.73;;;1.48;;
61096;SDS011;46977;50.936;6.908;2022-10-16T03:51:16;1.88;;;1.10;;
61096;SDS011;46977;50.936;6.908;2022-10-16T03:54:19;2.53;;;0.80;;
61096;SDS011;46977;50.936;6.908;2022-10-16T03:57:26;2.75;;;1.20;;
61096;SDS011;46977;50.936;6.908;2022-10-16T04:00:30;0.93;;;0.70;;
61096;SDS011;46977;50.936;6.908;2022-10-16T04:03:33;0.85;;;0.70;;
61096;SDS011;46977;50.936;6.908;2022-10-16T04:06:35;0.70;;;0.70;;
61096;SDS011;46977;50.936;6.908;2022-10-16T04:09:38;2.15;;;0.60;;
61096;SDS011;46977;50.936;6.908;2022-10-16T04:12:40;2.65;;;0.77;;
61096;SDS011;46977;50.936;6.908;2022-10-16T04:15:45;0.63;;;0.63;;
61096;SDS011;46977;50.936;6.908;2022-10-16T04:18:47;0.75;;;0.65;;
61096;SDS011;46977;50.936;6.908;2022-10-16T04:21:50;0.50;;;0.50;;
61096;SDS011;46977;50.936;6.908;2022-10-16T04:24:52;1.00;;;0.90;;
61096;SDS011;46977;50.936;6.908;2022-10-16T04:27:55;2.13;;;0.50;;
61096;SDS011;46977;50.936;6.908;2022-10-16T04:30:59;0.70;;;0.60;;
61096;SDS011;46977;50.936;6.908;2022-10-16T04:34:04;0.70;;;0.70;;
61096;SDS011;46977;50.936;6.908;2022-10-16T04:37:07;0.70;;;0.70;;
61096;SDS011;46977;50.936;6.908;2022-10-16T04:40:11;1.30;;;0.82;;
61096;SDS011;46977;50.936;6.908;2022-10-16T04:43:17;0.60;;;0.60;;
61096;SDS011;46977;50.936;6.908;2022-10-16T04:46:21;0.77;;;0.60;;
61096;SDS011;46977;50.936;6.908;2022-10-16T04:49:26;3.45;;;0.60;;
61096;SDS011;46977;50.936;6.908;2022-10-16T04:52:29;1.00;;;0.57;;
61096;SDS011;46977;50.936;6.908;2022-10-16T04:55:33;1.52;;;0.70;;
61096;SDS011;46977;50.936;6.908;2022-10-16T04:58:36;0.55;;;0.52;;
61096;SDS011;46977;50.936;6.908;2022-10-16T05:01:40;2.55;;;0.60;;
61096;SDS011;46977;50.936;6.908;2022-10-16T05:04:42;1.35;;;0.70;;
61096;SDS011;46977;50.936;6.908;2022-10-16T05:07:45;4.32;;;0.90;;
61096;SDS011;46977;50.936;6.908;2022-10-16T05:10:48;1.27;;;0.65;;
61096;SDS011;46977;50.936;6.908;2022-10-16T05:13:50;1.25;;;0.57;;
61096;SDS011;46977;50.936;6.908;2022-10-16T05:16:58;0.77;;;0.50;;
61096;SDS011;46977;50.936;6.908;2022-10-16T05:20:01;0.43;;;0.43;;
61096;SDS011;46977;50.936;6.908;2022-10-16T05:23:05;0.70;;;0.60;;
61096;SDS011;46977;50.936;6.908;2022-10-16T05:26:10;1.08;;;0.60;;
61096;SDS011;46977;50.936;6.908;2022-10-16T05:29:13;1.27;;;0.63;;
61096;SDS011;46977;50.936;6.908;2022-10-16T05:32:17;0.35;;;0.35;;
61096;SDS011;46977;50.936;6.908;2022-10-16T05:35:20;1.70;;;0.60;;
61096;SDS011;46977;50.936;6.908;2022-10-16T05:38:23;1.02;;;0.50;;
61096;SDS011;46977;50.936;6.908;2022-10-16T05:41:26;0.55;;;0.55;;
61096;SDS011;46977;50.936;6.908;2022-10-16T05:44:31;1.38;;;0.70;;
61096;SDS011;46977;50.936;6.908;2022-10-16T05:47:36;2.35;;;0.60;;
61096;SDS011;46977;50.936;6.908;2022-10-16T05:50:38;1.20;;;0.60;;
61096;SDS011;46977;50.936;6.908;2022-10-16T05:53:41;0.60;;;0.60;;
61096;SDS011;46977;50.936;6.908;2022-10-16T05:56:45;1.40;;;0.65;;
61096;SDS011;46977;50.936;6.908;2022-10-16T05:59:47;1.55;;;0.70;;
61096;SDS011;46977;50.936;6.908;2022-10-16T06:02:51;0.90;;;0.77;;
61096;SDS011;46977;50.936;6.908;2022-10-16T06:05:54;0.98;;;0.70;;
61096;SDS011;46977;50.936;6.908;2022-10-16T06:08:56;1.42;;;0.70;;
61096;SDS011;46977;50.936;6.908;2022-10-16T06:11:59;4.25;;;0.70;;
61096;SDS011;46977;50.936;6.908;2022-10-16T06:15:02;0.95;;;0.75;;
61096;SDS011;46977;50.936;6.908;2022-10-16T06:18:06;2.33;;;1.23;;
61096;SDS011;46977;50.936;6.908;2022-10-16T06:21:10;0.80;;;0.80;;
61096;SDS011;46977;50.936;6.908;2022-10-16T06:24:13;1.45;;;0.90;;
61096;SDS011;46977;50.936;6.908;2022-10-16T06:27:17;1.45;;;0.80;;
61096;SDS011;46977;50.936;6.908;2022-10-16T06:30:20;1.20;;;0.90;;
61096;SDS011;46977;50.936;6.908;2022-10-16T06:33:24;2.35;;;0.80;;
61096;SDS011;46977;50.936;6.908;2022-10-16T06:36:29;0.90;;;0.90;;
61096;SDS011;46977;50.936;6.908;2022-10-16T06:39:32;0.93;;;0.90;;
61096;SDS011;46977;50.936;6.908;2022-10-16T06:42:34;3.53;;;0.95;;
61096;SDS011;46977;50.936;6.908;2022-10-16T06:45:37;0.80;;;0.80;;
61096;SDS011;46977;50.936;6.908;2022-10-16T06:48:40;1.75;;;0.82;;
61096;SDS011;46977;50.936;6.908;2022-10-16T06:51:43;0.98;;;0.70;;
61096;SDS011;46977;50.936;6.908;2022-10-16T06:54:45;2.75;;;1.10;;
61096;SDS011;46977;50.936;6.908;2022-10-16T06:57:48;1.00;;;0.82;;
61096;SDS011;46977;50.936;6.908;2022-10-16T07:00:54;1.10;;;1.00;;
61096;SDS011;46977;50.936;6.908;2022-10-16T07:03:59;3.35;;;0.77;;
61096;SDS011;46977;50.936;6.908;2022-10-16T07:07:02;0.90;;;0.82;;
61096;SDS011;46977;50.936;6.908;2022-10-16T07:10:10;1.70;;;0.90;;
61096;SDS011;46977;50.936;6.908;2022-10-16T07:13:12;1.52;;;0.70;;
61096;SDS011;46977;50.936;6.908;2022-10-16T07:16:17;2.80;;;0.70;;
61096;SDS011;46977;50.936;6.908;2022-10-16T07:19:24;2.10;;;0.70;;
61096;SDS011;46977;50.936;6.908;2022-10-16T07:22:31;2.10;;;0.82;;
61096;SDS011;46977;50.936;6.908;2022-10-16T07:25:35;1.50;;;0.60;;
61096;SDS011;46977;50.936;6.908;2022-10-16T07:28:38;2.28;;;0.80;;
61096;SDS011;46977;50.936;6.908;2022-10-16T07:31:41;0.70;;;0.70;;
61096;SDS011;46977;50.936;6.908;2022-10-16T07:34:46;0.60;;;0.60;;
61096;SDS011;46977;50.936;6.908;2022-10-16T07:37:48;1.92;;;0.50;;
61096;SDS011;46977;50.936;6.908;2022-10-16T07:40:55;1.65;;;0.60;;
61096;SDS011;46977;50.936;6.908;2022-10-16T07:44:02;5.05;;;0.88;;
61096;SDS011;46977;50.936;6.908;2022-10-16T07:47:05;1.20;;;0.60;;
61096;SDS011;46977;50.936;6.908;2022-10-16T07:50:09;1.92;;;0.60;;
61096;SDS011;46977;50.936;6.908;2022-10-16T07:53:12;2.50;;;0.60;;
61096;SDS011;46977;50.936;6.908;2022-10-16T07:56:16;2.08;;;0.75;;
61096;SDS011;46977;50.936;6.908;2022-10-16T07:59:20;1.50;;;0.43;;
61096;SDS011;46977;50.936;6.908;2022-10-16T08:02:22;0.82;;;0.55;;
61096;SDS011;46977;50.936;6.908;2022-10-16T08:05:26;0.65;;;0.40;;
61096;SDS011;46977;50.936;6.908;2022-10-16T08:08:35;2.67;;;0.60;;
61096;SDS011;46977;50.936;6.908;2022-10-16T08:11:37;0.80;;;0.40;;
61096;SDS011;46977;50.936;6.908;2022-10-16T08:14:40;0.50;;;0.40;;
61096;SDS011;46977;50.936;6.908;2022-10-16T08:17:54;0.88;;;0.30;;
61096;SDS011;46977;50.936;6.908;2022-10-16T08:20:58;1.85;;;0.38;;
61096;SDS011;46977;50.936;6.908;2022-10-16T08:24:02;2.05;;;0.30;;
61096;SDS011;46977;50.936;6.908;2022-10-16T08:27:05;0.30;;;0.30;;
61096;SDS011;46977;50.936;6.908;2022-10-16T08:30:08;0.20;;;0.20;;
61096;SDS011;46977;50.936;6.908;2022-10-16T08:33:11;1.73;;;0.38;;
61096;SDS011;46977;50.936;6.908;2022-10-16T08:36:15;0.55;;;0.45;;
61096;SDS011;46977;50.936;6.908;2022-10-16T08:39:18;0.50;;;0.30;;
61096;SDS011;46977;50.936;6.908;2022-10-16T08:42:28;0.90;;;0.20;;
61096;SDS011;46977;50.936;6.908;2022-10-16T08:45:41;2.03;;;0.30;;
61096;SDS011;46977;50.936;6.908;2022-10-16T08:48:49;0.80;;;0.40;;
61096;SDS011;46977;50.936;6.908;2022-10-16T08:51:54;1.77;;;0.40;;
61096;SDS011;46977;50.936;6.908;2022-10-16T08:54:58;0.75;;;0.40;;
61096;SDS011;46977;50.936;6.908;2022-10-16T08:58:10;0.73;;;0.30;;
61096;SDS011;46977;50.936;6.908;2022-10-16T09:01:14;1.08;;;0.40;;
61096;SDS011;46977;50.936;6.908;2022-10-16T09:07:48;1.20;;;0.40;;
61096;SDS011;46977;50.936;6.908;2022-10-16T09:10:59;1.05;;;0.30;;
61096;SDS011;46977;50.936;6.908;2022-10-16T09:14:14;1.15;;;0.35;;
61096;SDS011;46977;50.936;6.908;2022-10-16T09:17:26;2.60;;;0.25;;
61096;SDS011;46977;50.936;6.908;2022-10-16T09:20:40;0.65;;;0.28;;
61096;SDS011;46977;50.936;6.908;2022-10-16T09:23:48;1.38;;;0.20;;
61096;SDS011;46977;50.936;6.908;2022-10-16T09:26:51;1.13;;;0.40;;
61096;SDS011;46977;50.936;6.908;2022-10-16T09:29:57;0.68;;;0.25;;
61096;SDS011;46977;50.936;6.908;2022-10-16T09:33:01;2.30;;;0.40;;
61096;SDS011;46977;50.936;6.908;2022-10-16T09:36:05;0.95;;;0.20;;
61096;SDS011;46977;50.936;6.908;2022-10-16T09:39:10;1.05;;;0.20;;
61096;SDS011;46977;50.936;6.908;2022-10-16T09:42:16;1.90;;;0.20;;
61096;SDS011;46977;50.936;6.908;2022-10-16T09:45:20;0.63;;;0.22;;
61096;SDS011;46977;50.936;6.908;2022-10-16T09:48:28;1.15;;;0.22;;
61096;SDS011;46977;50.936;6.908;2022-10-16T09:51:36;3.03;;;0.30;;
61096;SDS011;46977;50.936;6.908;2022-10-16T09:54:49;1.40;;;0.30;;
61096;SDS011;46977;50.936;6.908;2022-10-16T09:57:53;0.50;;;0.30;;
61096;SDS011;46977;50.936;6.908;2022-10-16T10:00:56;0.40;;;0.20;;
61096;SDS011;46977;50.936;6.908;2022-10-16T10:03:59;3.58;;;0.40;;
61096;SDS011;46977;50.936;6.908;2022-10-16T10:07:03;0.80;;;0.30;;
61096;SDS011;46977;50.936;6.908;2022-10-16T10:10:19;1.42;;;0.55;;
61096;SDS011;46977;50.936;6.908;2022-10-16T10:13:25;2.25;;;1.20;;
61096;SDS011;46977;50.936;6.908;2022-10-16T10:16:29;1.48;;;0.35;;
61096;SDS011;46977;50.936;6.908;2022-10-16T10:19:37;3.63;;;0.30;;
61096;SDS011;46977;50.936;6.908;2022-10-16T10:22:41;1.88;;;0.30;;
61096;SDS011;46977;50.936;6.908;2022-10-16T10:25:51;2.05;;;0.30;;
61096;SDS011;46977;50.936;6.908;2022-10-16T10:28:58;0.63;;;0.20;;
61096;SDS011;46977;50.936;6.908;2022-10-16T10:32:09;1.08;;;0.32;;
61096;SDS011;46977;50.936;6.908;2022-10-16T10:35:19;3.15;;;0.63;;
61096;SDS011;46977;50.936;6.908;2022-10-16T10:38:27;1.90;;;0.40;;
61096;SDS011;46977;50.936;6.908;2022-10-16T10:45:18;1.95;;;0.43;;
61096;SDS011;46977;50.936;6.908;2022-10-16T10:48:28;4.22;;;0.50;;
61096;SDS011;46977;50.936;6.908;2022-10-16T10:51:48;1.02;;;0.30;;
61096;SDS011;46977;50.936;6.908;2022-10-16T10:54:59;0.43;;;0.20;;
61096;SDS011;46977;50.936;6.908;2022-10-16T11:01:46;1.38;;;0.30;;
61096;SDS011;46977;50.936;6.908;2022-10-16T11:08:32;2.75;;;0.75;;
61096;SDS011;46977;50.936;6.908;2022-10-16T11:11:38;2.67;;;0.30;;
61096;SDS011;46977;50.936;6.908;2022-10-16T11:14:48;4.85;;;0.50;;
61096;SDS011;46977;50.936;6.908;2022-10-16T11:17:53;3.28;;;0.30;;
61096;SDS011;46977;50.936;6.908;2022-10-16T11:21:03;2.97;;;0.35;;
61096;SDS011;46977;50.936;6.908;2022-10-16T11:24:12;0.20;;;0.20;;
61096;SDS011;46977;50.936;6.908;2022-10-16T11:27:19;3.05;;;0.30;;
61096;SDS011;46977;50.936;6.908;2022-10-16T11:30:29;3.42;;;0.30;;
61096;SDS011;46977;50.936;6.908;2022-10-16T11:33:38;2.95;;;0.40;;
61096;SDS011;46977;50.936;6.908;2022-10-16T11:36:42;3.05;;;0.40;;
61096;SDS011;46977;50.936;6.908;2022-10-16T11:39:46;3.50;;;0.43;;
61096;SDS011;46977;50.936;6.908;2022-10-16T11:42:50;3.55;;;1.25;;
61096;SDS011;46977;50.936;6.908;2022-10-16T11:45:58;0.75;;;0.30;;
61096;SDS011;46977;50.936;6.908;2022-10-16T11:49:09;1.10;;;0.30;;
61096;SDS011;46977;50.936;6.908;2022-10-16T11:52:16;3.25;;;0.40;;
61096;SDS011;46977;50.936;6.908;2022-10-16T11:55:24;2.40;;;0.50;;
61096;SDS011;46977;50.936;6.908;2022-10-16T11:58:33;8.32;;;0.43;;
61096;SDS011;46977;50.936;6.908;2022-10-16T12:01:40;1.75;;;0.40;;
61096;SDS011;46977;50.936;6.908;2022-10-16T12:04:45;3.40;;;0.52;;
61096;SDS011;46977;50.936;6.908;2022-10-16T12:07:57;1.42;;;0.60;;
61096;SDS011;46977;50.936;6.908;2022-10-16T12:11:06;0.50;;;0.20;;
61096;SDS011;46977;50.936;6.908;2022-10-16T12:17:50;0.52;;;0.35;;
61096;SDS011;46977;50.936;6.908;2022-10-16T12:20:56;4.22;;;0.22;;
61096;SDS011;46977;50.936;6.908;2022-10-16T12:24:06;3.92;;;0.60;;
61096;SDS011;46977;50.936;6.908;2022-10-16T12:27:30;5.15;;;0.40;;
61096;SDS011;46977;50.936;6.908;2022-10-16T12:30:34;0.70;;;0.43;;
61096;SDS011;46977;50.936;6.908;2022-10-16T12:33:39;1.17;;;0.32;;
61096;SDS011;46977;50.936;6.908;2022-10-16T12:36:44;0.65;;;0.30;;
61096;SDS011;46977;50.936;6.908;2022-10-16T12:39:47;3.38;;;0.40;;
61096;SDS011;46977;50.936;6.908;2022-10-16T12:42:50;0.50;;;0.40;;
61096;SDS011;46977;50.936;6.908;2022-10-16T12:46:02;3.67;;;0.50;;
61096;SDS011;46977;50.936;6.908;2022-10-16T12:49:22;3.90;;;0.45;;
61096;SDS011;46977;50.936;6.908;2022-10-16T12:52:34;1.88;;;0.88;;
61096;SDS011;46977;50.936;6.908;2022-10-16T12:55:42;2.38;;;0.30;;
61096;SDS011;46977;50.936;6.908;2022-10-16T12:58:53;1.45;;;0.40;;
61096;SDS011;46977;50.936;6.908;2022-10-16T13:02:09;3.10;;;0.43;;
61096;SDS011;46977;50.936;6.908;2022-10-16T13:05:28;0.80;;;0.30;;
61096;SDS011;46977;50.936;6.908;2022-10-16T13:08:44;3.72;;;0.50;;
61096;SDS011;46977;50.936;6.908;2022-10-16T13:12:06;1.75;;;0.40;;
61096;SDS011;46977;50.936;6.908;2022-10-16T13:15:25;1.95;;;0.40;;
61096;SDS011;46977;50.936;6.908;2022-10-16T13:18:36;2.70;;;0.55;;
61096;SDS011;46977;50.936;6.908;2022-10-16T13:21:48;7.00;;;0.43;;
61096;SDS011;46977;50.936;6.908;2022-10-16T13:24:56;1.17;;;0.40;;
61096;SDS011;46977;50.936;6.908;2022-10-16T13:28:07;5.25;;;0.57;;
61096;SDS011;46977;50.936;6.908;2022-10-16T13:31:12;0.90;;;0.35;;
61096;SDS011;46977;50.936;6.908;2022-10-16T13:34:19;2.75;;;0.50;;
61096;SDS011;46977;50.936;6.908;2022-10-16T13:37:26;3.38;;;0.60;;
61096;SDS011;46977;50.936;6.908;2022-10-16T13:40:30;3.60;;;0.50;;
61096;SDS011;46977;50.936;6.908;2022-10-16T13:43:34;1.10;;;0.50;;
61096;SDS011;46977;50.936;6.908;2022-10-16T13:46:40;5.80;;;0.77;;
61096;SDS011;46977;50.936;6.908;2022-10-16T13:49:46;1.98;;;0.52;;
61096;SDS011;46977;50.936;6.908;2022-10-16T13:53:05;3.08;;;0.52;;
61096;SDS011;46977;50.936;6.908;2022-10-16T13:56:12;2.58;;;1.25;;
61096;SDS011;46977;50.936;6.908;2022-10-16T13:59:23;5.88;;;0.50;;
61096;SDS011;46977;50.936;6.908;2022-10-16T14:02:27;3.30;;;0.50;;
61096;SDS011;46977;50.936;6.908;2022-10-16T14:05:32;1.60;;;0.50;;
61096;SDS011;46977;50.936;6.908;2022-10-16T14:08:40;0.70;;;0.52;;
61096;SDS011;46977;50.936;6.908;2022-10-16T14:11:45;2.30;;;0.77;;
61096;SDS011;46977;50.936;6.908;2022-10-16T14:14:50;2.00;;;0.73;;
61096;SDS011;46977;50.936;6.908;2022-10-16T14:17:53;3.67;;;0.60;;
61096;SDS011;46977;50.936;6.908;2022-10-16T14:21:02;0.85;;;0.40;;
61096;SDS011;46977;50.936;6.908;2022-10-16T14:24:13;2.00;;;0.50;;
61096;SDS011;46977;50.936;6.908;2022-10-16T14:27:28;1.75;;;0.60;;
61096;SDS011;46977;50.936;6.908;2022-10-16T14:30:33;1.90;;;0.60;;
61096;SDS011;46977;50.936;6.908;2022-10-16T14:33:37;2.42;;;0.40;;
61096;SDS011;46977;50.936;6.908;2022-10-16T14:36:42;1.50;;;0.60;;
61096;SDS011;46977;50.936;6.908;2022-10-16T14:39:50;3.55;;;0.55;;
61096;SDS011;46977;50.936;6.908;2022-10-16T14:42:55;5.38;;;0.68;;
61096;SDS011;46977;50.936;6.908;2022-10-16T14:45:57;1.67;;;0.50;;
61096;SDS011;46977;50.936;6.908;2022-10-16T14:49:03;1.30;;;0.57;;
61096;SDS011;46977;50.936;6.908;2022-10-16T14:52:13;1.73;;;0.60;;
61096;SDS011;46977;50.936;6.908;2022-10-16T14:55:17;1.55;;;0.60;;
61096;SDS011;46977;50.936;6.908;2022-10-16T14:58:21;2.67;;;0.57;;
61096;SDS011;46977;50.936;6.908;2022-10-16T15:01:24;5.43;;;1.17;;
61096;SDS011;46977;50.936;6.908;2022-10-16T15:04:27;2.65;;;0.68;;
61096;SDS011;46977;50.936;6.908;2022-10-16T15:07:30;1.48;;;0.70;;
61096;SDS011;46977;50.936;6.908;2022-10-16T15:10:35;1.98;;;0.60;;
61096;SDS011;46977;50.936;6.908;2022-10-16T15:13:40;1.42;;;0.50;;
61096;SDS011;46977;50.936;6.908;2022-10-16T15:16:42;1.88;;;0.95;;
61096;SDS011;46977;50.936;6.908;2022-10-16T15:19:45;1.45;;;0.60;;
61096;SDS011;46977;50.936;6.908;2022-10-16T15:22:47;2.47;;;0.65;;
61096;SDS011;46977;50.936;6.908;2022-10-16T15:25:52;2.50;;;1.27;;
61096;SDS011;46977;50.936;6.908;2022-10-16T15:28:55;3.90;;;1.52;;
61096;SDS011;46977;50.936;6.908;2022-10-16T15:31:57;1.85;;;0.50;;
61096;SDS011;46977;50.936;6.908;2022-10-16T15:35:00;4.20;;;0.52;;
61096;SDS011;46977;50.936;6.908;2022-10-16T15:38:02;0.85;;;0.45;;
61096;SDS011;46977;50.936;6.908;2022-10-16T15:41:06;0.95;;;0.50;;
61096;SDS011;46977;50.936;6.908;2022-10-16T15:44:08;2.35;;;0.60;;
61096;SDS011;46977;50.936;6.908;2022-10-16T15:47:10;3.85;;;0.60;;
61096;SDS011;46977;50.936;6.908;2022-10-16T15:50:14;1.95;;;0.50;;
61096;SDS011;46977;50.936;6.908;2022-10-16T15:53:17;1.48;;;0.60;;
61096;SDS011;46977;50.936;6.908;2022-10-16T15:56:20;3.63;;;0.73;;
61096;SDS011;46977;50.936;6.908;2022-10-16T15:59:24;1.23;;;1.00;;
61096;SDS011;46977;50.936;6.908;2022-10-16T16:02:26;3.22;;;1.02;;
61096;SDS011;46977;50.936;6.908;2022-10-16T16:05:29;1.70;;;0.80;;
61096;SDS011;46977;50.936;6.908;2022-10-16T16:08:32;3.03;;;0.80;;
61096;SDS011;46977;50.936;6.908;2022-10-16T16:11:36;2.03;;;0.93;;
61096;SDS011;46977;50.936;6.908;2022-10-16T16:14:40;5.28;;;1.27;;
61096;SDS011;46977;50.936;6.908;2022-10-16T16:17:42;1.83;;;0.80;;
61096;SDS011;46977;50.936;6.908;2022-10-16T16:20:45;3.78;;;1.40;;
61096;SDS011;46977;50.936;6.908;2022-10-16T16:23:48;2.60;;;1.33;;
61096;SDS011;46977;50.936;6.908;2022-10-16T16:26:51;6.28;;;1.10;;
61096;SDS011;46977;50.936;6.908;2022-10-16T16:29:54;2.28;;;0.90;;
61096;SDS011;46977;50.936;6.908;2022-10-16T16:32:57;2.92;;;1.08;;
61096;SDS011;46977;50.936;6.908;2022-10-16T16:35:59;2.83;;;1.00;;
61096;SDS011;46977;50.936;6.908;2022-10-16T16:39:02;3.10;;;1.40;;
61096;SDS011;46977;50.936;6.908;2022-10-16T16:42:07;4.10;;;0.95;;
61096;SDS011;46977;50.936;6.908;2022-10-16T16:45:09;3.28;;;0.77;;
61096;SDS011;46977;50.936;6.908;2022-10-16T16:48:11;2.30;;;1.35;;
61096;SDS011;46977;50.936;6.908;2022-10-16T16:51:15;1.13;;;0.75;;
61096;SDS011;46977;50.936;6.908;2022-10-16T16:54:19;3.22;;;0.82;;
61096;SDS011;46977;50.936;6.908;2022-10-16T16:57:23;3.03;;;0.90;;
61096;SDS011;46977;50.936;6.908;2022-10-16T17:00:26;4.22;;;0.70;;
61096;SDS011;46977;50.936;6.908;2022-10-16T17:03:28;4.40;;;1.13;;
61096;SDS011;46977;50.936;6.908;2022-10-16T17:06:31;2.75;;;1.00;;
61096;SDS011;46977;50.936;6.908;2022-10-16T17:09:33;3.25;;;1.30;;
61096;SDS011;46977;50.936;6.908;2022-10-16T17:12:37;1.95;;;0.90;;
61096;SDS011;46977;50.936;6.908;2022-10-16T17:15:45;2.92;;;1.20;;
61096;SDS011;46977;50.936;6.908;2022-10-16T17:18:47;2.25;;;0.90;;
61096;SDS011;46977;50.936;6.908;2022-10-16T17:21:50;4.00;;;1.20;;
61096;SDS011;46977;50.936;6.908;2022-10-16T17:24:53;2.22;;;1.20;;
61096;SDS011;46977;50.936;6.908;2022-10-16T17:27:57;2.95;;;1.20;;
61096;SDS011;46977;50.936;6.908;2022-10-16T17:31:09;3.85;;;1.38;;
61096;SDS011;46977;50.936;6.908;2022-10-16T17:34:17;3.95;;;1.50;;
61096;SDS011;46977;50.936;6.908;2022-10-16T17:37:20;2.45;;;1.60;;
61096;SDS011;46977;50.936;6.908;2022-10-16T17:40:22;3.90;;;1.98;;
61096;SDS011;46977;50.936;6.908;2022-10-16T17:43:26;4.00;;;1.75;;
61096;SDS011;46977;50.936;6.908;2022-10-16T17:46:28;4.03;;;2.30;;
61096;SDS011;46977;50.936;6.908;2022-10-16T17:49:30;5.38;;;2.70;;
61096;SDS011;46977;50.936;6.908;2022-10-16T17:52:32;4.03;;;2.33;;
61096;SDS011;46977;50.936;6.908;2022-10-16T17:55:36;5.32;;;1.85;;
61096;SDS011;46977;50.936;6.908;2022-10-16T17:58:40;5.40;;;2.10;;
61096;SDS011;46977;50.936;6.908;2022-10-16T18:01:43;4.05;;;2.10;;
61096;SDS011;46977;50.936;6.908;2022-10-16T18:04:47;5.85;;;1.35;;
61096;SDS011;46977;50.936;6.908;2022-10-16T18:07:50;3.55;;;2.00;;
61096;SDS011;46977;50.936;6.908;2022-10-16T18:10:53;4.95;;;2.15;;
61096;SDS011;46977;50.936;6.908;2022-10-16T18:13:57;4.55;;;2.38;;
61096;SDS011;46977;50.936;6.908;2022-10-16T18:17:00;3.88;;;1.90;;
61096;SDS011;46977;50.936;6.908;2022-10-16T18:20:03;7.35;;;2.70;;
61096;SDS011;46977;50.936;6.908;2022-10-16T18:23:06;3.35;;;2.10;;
61096;SDS011;46977;50.936;6.908;2022-10-16T18:26:12;5.82;;;2.60;;
61096;SDS011;46977;50.936;6.908;2022-10-16T18:29:17;4.90;;;1.85;;
61096;SDS011;46977;50.936;6.908;2022-10-16T18:32:19;4.55;;;2.35;;
61096;SDS011;46977;50.936;6.908;2022-10-16T18:35:22;7.00;;;2.35;;
61096;SDS011;46977;50.936;6.908;2022-10-16T18:38:24;4.72;;;2.53;;
61096;SDS011;46977;50.936;6.908;2022-10-16T18:41:27;5.38;;;2.78;;
61096;SDS011;46977;50.936;6.908;2022-10-16T18:44:31;4.72;;;2.10;;
61096;SDS011;46977;50.936;6.908;2022-10-16T18:47:33;8.77;;;3.53;;
61096;SDS011;46977;50.936;6.908;2022-10-16T18:50:35;8.48;;;2.80;;
61096;SDS011;46977;50.936;6.908;2022-10-16T18:53:38;5.00;;;2.40;;